createdAt,value
2022-12-20T00:00:42.944Z,2.82
2022-12-20T00:01:27.928Z,2.92
2022-12-20T00:02:09.756Z,2.93
2022-12-20T00:02:51.496Z,2.57
2022-12-20T00:03:33.386Z,2.83
2022-12-20T00:04:15.087Z,2.94
2022-12-20T00:04:56.702Z,2.83
2022-12-20T00:05:42.395Z,2.96
2022-12-20T00:06:24.783Z,2.97
2022-12-20T00:07:06.495Z,2.72
2022-12-20T00:07:48.274Z,2.99
2022-12-20T00:08:30.317Z,2.99
2022-12-20T00:09:12.150Z,2.97
2022-12-20T00:09:53.826Z,2.96
2022-12-20T00:10:39.949Z,2.95
2022-12-20T00:11:22.077Z,2.97
2022-12-20T00:12:03.976Z,2.90
2022-12-20T00:12:45.567Z,2.99
2022-12-20T00:13:29.924Z,2.95
2022-12-20T00:14:11.568Z,2.77
2022-12-20T00:14:53.215Z,2.82
2022-12-20T00:15:34.865Z,2.73
2022-12-20T00:16:19.337Z,2.83
2022-12-20T00:17:00.979Z,2.66
2022-12-20T00:17:42.638Z,2.58
2022-12-20T00:18:24.304Z,2.63
2022-12-20T00:19:06.987Z,2.58
2022-12-20T00:19:48.659Z,2.48
2022-12-20T00:20:30.706Z,2.45
2022-12-20T00:21:14.399Z,2.33
2022-12-20T00:21:56.013Z,2.28
2022-12-20T00:22:37.679Z,2.17
2022-12-20T00:23:19.319Z,2.38
2022-12-20T00:24:01.284Z,2.43
2022-12-20T00:24:42.928Z,2.45
2022-12-20T00:25:24.692Z,2.52
2022-12-20T00:26:15.069Z,2.34
2022-12-20T00:26:58.592Z,2.61
2022-12-20T00:27:40.215Z,2.62
2022-12-20T00:28:21.810Z,2.52
2022-12-20T00:29:04.636Z,2.43
2022-12-20T00:29:46.379Z,2.72
2022-12-20T00:30:28.746Z,2.28
2022-12-20T00:31:12.633Z,2.68
2022-12-20T00:31:54.522Z,2.59
2022-12-20T00:32:36.248Z,2.65
2022-12-20T00:33:17.882Z,2.80
2022-12-20T00:34:01.272Z,2.82
2022-12-20T00:34:42.907Z,2.88
2022-12-20T00:35:24.550Z,2.88
2022-12-20T00:36:07.659Z,2.82
2022-12-20T00:36:49.295Z,2.88
2022-12-20T00:37:30.930Z,2.53
2022-12-20T00:38:12.852Z,2.82
2022-12-20T00:38:57.110Z,2.81
2022-12-20T00:39:38.853Z,2.78
2022-12-20T00:40:20.527Z,2.70
2022-12-20T00:41:04.472Z,2.85
2022-12-20T00:41:46.137Z,2.87
2022-12-20T00:42:28.818Z,2.82
2022-12-20T00:43:10.426Z,2.68
2022-12-20T00:43:53.426Z,2.71
2022-12-20T00:44:37.756Z,2.65
2022-12-20T00:45:19.405Z,2.55
2022-12-20T00:46:04.415Z,2.65
2022-12-20T00:46:47.405Z,2.62
2022-12-20T00:47:29.080Z,2.66
2022-12-20T00:48:10.945Z,2.48
2022-12-20T00:48:53.374Z,2.65
2022-12-20T00:49:35.051Z,2.51
2022-12-20T00:50:16.840Z,2.71
2022-12-20T00:51:07.108Z,2.74
2022-12-20T00:51:49.284Z,2.74
2022-12-20T00:52:30.908Z,2.62
2022-12-20T00:53:12.607Z,2.50
2022-12-20T00:53:55.300Z,2.41
2022-12-20T00:54:37.036Z,2.49
2022-12-20T00:55:18.761Z,2.52
2022-12-20T00:56:00.939Z,2.14
2022-12-20T00:56:42.817Z,2.14
2022-12-20T00:57:24.960Z,2.52
2022-12-20T00:58:06.626Z,2.53
2022-12-20T00:58:48.396Z,2.53
2022-12-20T00:59:30.002Z,2.59
2022-12-20T01:00:11.985Z,2.63
2022-12-20T01:00:56.856Z,2.67
2022-12-20T01:01:39.224Z,2.72
2022-12-20T01:02:20.987Z,2.71
2022-12-20T01:03:06.524Z,2.71
2022-12-20T01:03:49.698Z,2.80
2022-12-20T01:04:31.476Z,2.76
2022-12-20T01:05:13.140Z,2.70
2022-12-20T01:06:02.065Z,2.73
2022-12-20T01:06:43.817Z,2.76
2022-12-20T01:07:26.188Z,2.76
2022-12-20T01:08:08.036Z,2.52
2022-12-20T01:08:49.806Z,2.71
2022-12-20T01:09:32.210Z,2.37
2022-12-20T01:10:13.868Z,2.80
2022-12-20T01:11:23.494Z,2.89
2022-12-20T01:12:08.200Z,2.83
2022-12-20T01:12:49.924Z,2.83
2022-12-20T01:13:33.075Z,2.81
2022-12-20T01:14:16.733Z,2.80
2022-12-20T01:14:58.354Z,2.82
2022-12-20T01:15:39.928Z,2.85
2022-12-20T01:16:27.846Z,2.81
2022-12-20T01:17:09.602Z,2.83
2022-12-20T01:17:51.733Z,2.77
2022-12-20T01:18:33.392Z,2.86
2022-12-20T01:19:17.167Z,3.02
2022-12-20T01:19:58.868Z,3.05
2022-12-20T01:20:40.540Z,3.07
2022-12-20T01:21:23.993Z,3.09
2022-12-20T01:22:05.602Z,3.05
2022-12-20T01:22:47.789Z,2.94
2022-12-20T01:23:30.197Z,2.91
2022-12-20T01:24:16.626Z,3.18
2022-12-20T01:24:58.298Z,2.93
2022-12-20T01:25:40.240Z,3.24
2022-12-20T01:26:23.595Z,3.20
2022-12-20T01:27:05.205Z,2.93
2022-12-20T01:27:46.801Z,3.31
2022-12-20T01:28:29.308Z,3.17
2022-12-20T01:29:11.682Z,3.34
2022-12-20T01:29:53.347Z,3.33
2022-12-20T01:30:34.903Z,3.15
2022-12-20T01:31:18.383Z,3.25
2022-12-20T01:32:00.865Z,3.31
2022-12-20T01:32:42.573Z,3.31
2022-12-20T01:33:24.240Z,3.19
2022-12-20T01:34:06.545Z,3.23
2022-12-20T01:34:48.224Z,3.22
2022-12-20T01:35:29.802Z,3.24
2022-12-20T01:36:14.269Z,3.13
2022-12-20T01:36:55.954Z,3.04
2022-12-20T01:37:37.550Z,2.91
2022-12-20T01:38:19.657Z,3.07
2022-12-20T01:39:08.557Z,3.15
2022-12-20T01:39:53.180Z,3.18
2022-12-20T01:40:34.866Z,3.18
2022-12-20T01:41:21.107Z,3.17
2022-12-20T01:42:02.901Z,3.05
2022-12-20T01:42:44.483Z,3.06
2022-12-20T01:43:45.775Z,3.08
2022-12-20T01:44:27.304Z,3.09
2022-12-20T01:45:19.837Z,3.11
2022-12-20T01:46:01.540Z,3.11
2022-12-20T01:46:44.634Z,3.12
2022-12-20T01:47:29.877Z,3.13
2022-12-20T01:48:14.348Z,3.14
2022-12-20T01:49:07.585Z,3.05
2022-12-20T01:49:54.534Z,2.87
2022-12-20T01:50:36.838Z,3.12
2022-12-20T01:51:19.584Z,3.22
2022-12-20T01:52:14.546Z,3.24
2022-12-20T01:52:58.700Z,2.99
2022-12-20T01:53:41.150Z,3.25
2022-12-20T01:54:28.185Z,3.13
2022-12-20T01:55:18.353Z,3.19
2022-12-20T01:56:05.892Z,3.21
2022-12-20T01:56:58.677Z,3.22
2022-12-20T01:57:48.584Z,3.27
2022-12-20T01:58:30.878Z,3.27
2022-12-20T01:59:15.755Z,3.06
2022-12-20T01:59:58.670Z,3.06
2022-12-20T02:00:40.359Z,3.13
2022-12-20T02:01:25.590Z,3.09
2022-12-20T02:02:11.009Z,2.92
2022-12-20T02:02:54.207Z,3.04
2022-12-20T02:03:36.294Z,2.90
2022-12-20T02:04:18.084Z,3.04
2022-12-20T02:04:59.934Z,3.03
2022-12-20T02:05:45.360Z,3.05
2022-12-20T02:06:27.834Z,3.04
2022-12-20T02:07:21.646Z,2.73
2022-12-20T02:08:04.722Z,2.72
2022-12-20T02:08:48.403Z,2.88
2022-12-20T02:09:33.463Z,3.04
2022-12-20T02:10:16.686Z,2.99
2022-12-20T02:11:15.756Z,3.06
2022-12-20T02:12:15.455Z,3.07
2022-12-20T02:13:07.384Z,2.96
2022-12-20T02:13:59.636Z,3.00
2022-12-20T02:14:53.212Z,3.15
2022-12-20T02:15:54.229Z,3.18
2022-12-20T02:16:51.520Z,3.23
2022-12-20T02:17:57.558Z,3.25
2022-12-20T02:18:51.084Z,3.29
2022-12-20T02:19:58.459Z,3.31
2022-12-20T02:20:55.351Z,3.31
2022-12-20T02:21:46.646Z,3.34
2022-12-20T02:22:53.245Z,3.35
2022-12-20T02:23:46.649Z,3.35
2022-12-20T02:24:36.969Z,3.31
2022-12-20T02:25:36.402Z,3.30
2022-12-20T02:26:51.331Z,3.30
2022-12-20T02:28:12.115Z,3.28
2022-12-20T02:29:13.624Z,3.23
2022-12-20T02:29:58.343Z,3.18
2022-12-20T02:30:43.754Z,3.14
2022-12-20T02:31:30.346Z,3.12
2022-12-20T02:32:24.704Z,3.14
2022-12-20T02:33:12.068Z,3.04
2022-12-20T02:33:57.718Z,3.06
2022-12-20T02:34:40.063Z,3.07
2022-12-20T02:35:25.391Z,2.92
2022-12-20T02:36:07.361Z,2.96
2022-12-20T02:36:52.237Z,2.97
2022-12-20T02:37:33.957Z,3.02
2022-12-20T02:38:35.367Z,3.06
2022-12-20T02:39:17.337Z,3.04
2022-12-20T02:39:59.100Z,3.12
2022-12-20T02:40:43.435Z,3.15
2022-12-20T02:41:51.657Z,3.19
2022-12-20T02:42:34.351Z,3.21
2022-12-20T02:43:35.042Z,2.83
2022-12-20T02:44:38.099Z,3.17
2022-12-20T02:45:24.602Z,3.09
2022-12-20T02:46:08.852Z,3.22
2022-12-20T02:47:02.169Z,3.07
2022-12-20T02:47:49.731Z,3.22
2022-12-20T02:48:38.511Z,3.25
2022-12-20T02:49:28.235Z,3.22
2022-12-20T02:50:10.893Z,3.36
2022-12-20T02:50:56.561Z,3.36
2022-12-20T02:51:40.025Z,3.23
2022-12-20T02:52:26.440Z,3.17
2022-12-20T02:53:09.175Z,3.46
2022-12-20T02:53:53.025Z,3.30
2022-12-20T02:54:37.182Z,3.43
2022-12-20T02:55:23.650Z,3.43
2022-12-20T02:56:20.412Z,3.43
2022-12-20T02:57:19.591Z,3.25
2022-12-20T02:58:09.909Z,3.34
2022-12-20T02:59:00.169Z,3.35
2022-12-20T03:00:03.952Z,3.22
2022-12-20T03:00:51.006Z,3.39
2022-12-20T03:01:44.817Z,3.37
2022-12-20T03:02:27.376Z,3.37
2022-12-20T03:03:24.919Z,3.36
2022-12-20T03:04:08.452Z,3.28
2022-12-20T03:04:51.425Z,3.30
2022-12-20T03:05:36.325Z,3.19
2022-12-20T03:06:18.104Z,3.24
2022-12-20T03:07:08.531Z,3.30
2022-12-20T03:07:53.712Z,3.17
2022-12-20T03:08:38.061Z,3.21
2022-12-20T03:09:19.708Z,3.08
2022-12-20T03:10:01.384Z,3.19
2022-12-20T03:10:43.690Z,3.17
2022-12-20T03:11:25.277Z,2.97
2022-12-20T03:12:08.729Z,3.27
2022-12-20T03:12:52.292Z,3.15
2022-12-20T03:13:34.045Z,2.79
2022-12-20T03:14:20.575Z,3.22
2022-12-20T03:15:04.422Z,3.25
2022-12-20T03:15:46.106Z,2.98
2022-12-20T03:16:27.850Z,3.30
2022-12-20T03:17:10.143Z,2.98
2022-12-20T03:17:53.194Z,3.30
2022-12-20T03:18:34.806Z,3.40
2022-12-20T03:19:16.783Z,3.36
2022-12-20T03:19:58.380Z,3.04
2022-12-20T03:20:40.405Z,3.40
2022-12-20T03:21:22.025Z,3.27
2022-12-20T03:22:03.833Z,3.29
2022-12-20T03:22:46.661Z,3.38
2022-12-20T03:23:30.989Z,3.26
2022-12-20T03:24:13.649Z,3.24
2022-12-20T03:24:55.375Z,3.15
2022-12-20T03:25:37.773Z,3.14
2022-12-20T03:26:20.444Z,3.22
2022-12-20T03:27:07.704Z,3.20
2022-12-20T03:27:49.543Z,3.04
2022-12-20T03:28:31.649Z,3.21
2022-12-20T03:29:13.358Z,3.19
2022-12-20T03:29:55.795Z,3.17
2022-12-20T03:30:37.551Z,3.26
2022-12-20T03:31:19.908Z,3.24
2022-12-20T03:32:06.846Z,3.02
2022-12-20T03:32:54.800Z,2.89
2022-12-20T03:33:36.468Z,3.20
2022-12-20T03:34:21.517Z,3.26
2022-12-20T03:35:04.161Z,2.80
2022-12-20T03:35:50.755Z,3.32
2022-12-20T03:36:33.956Z,3.32
2022-12-20T03:37:18.254Z,3.34
2022-12-20T03:37:59.889Z,3.18
2022-12-20T03:38:41.725Z,3.21
2022-12-20T03:39:23.949Z,3.19
2022-12-20T03:40:09.058Z,3.14
2022-12-20T03:40:50.765Z,3.26
2022-12-20T03:41:35.565Z,3.31
2022-12-20T03:42:17.773Z,3.22
2022-12-20T03:42:59.492Z,3.30
2022-12-20T03:43:41.631Z,3.24
2022-12-20T03:44:27.973Z,3.23
2022-12-20T03:45:11.004Z,3.02
2022-12-20T03:45:52.799Z,3.22
2022-12-20T03:46:35.911Z,3.20
2022-12-20T03:47:19.068Z,3.15
2022-12-20T03:48:01.442Z,3.25
2022-12-20T03:48:45.322Z,3.11
2022-12-20T03:49:27.623Z,2.98
2022-12-20T03:50:10.308Z,3.35
2022-12-20T03:50:51.979Z,3.39
2022-12-20T03:51:33.542Z,3.26
2022-12-20T03:52:16.341Z,3.43
2022-12-20T03:52:58.071Z,3.23
2022-12-20T03:53:40.989Z,3.43
2022-12-20T03:54:23.105Z,3.40
2022-12-20T03:55:19.241Z,3.27
2022-12-20T03:56:00.990Z,3.38
2022-12-20T03:56:42.839Z,3.44
2022-12-20T03:57:24.625Z,3.34
2022-12-20T03:58:07.875Z,3.02
2022-12-20T03:58:52.819Z,3.04
2022-12-20T03:59:35.541Z,3.31
2022-12-20T04:00:18.945Z,3.27
2022-12-20T04:01:02.702Z,3.28
2022-12-20T04:01:55.928Z,3.18
2022-12-20T04:02:37.994Z,3.11
2022-12-20T04:03:19.818Z,3.18
2022-12-20T04:04:01.586Z,3.22
2022-12-20T04:04:43.364Z,3.20
2022-12-20T04:05:25.134Z,3.20
2022-12-20T04:06:07.169Z,3.11
2022-12-20T04:06:48.939Z,3.18
2022-12-20T04:07:30.914Z,3.21
2022-12-20T04:08:12.720Z,3.19
2022-12-20T04:08:55.351Z,3.16
2022-12-20T04:09:45.989Z,3.20
2022-12-20T04:10:29.310Z,3.21
2022-12-20T04:11:17.721Z,3.19
2022-12-20T04:12:05.381Z,3.14
2022-12-20T04:12:48.548Z,3.12
2022-12-20T04:13:31.308Z,3.10
2022-12-20T04:14:12.996Z,3.10
2022-12-20T04:14:54.769Z,3.11
2022-12-20T04:15:36.522Z,3.09
2022-12-20T04:16:21.980Z,3.03
2022-12-20T04:17:04.233Z,3.01
2022-12-20T04:17:46.184Z,2.93
2022-12-20T04:18:28.566Z,3.02
2022-12-20T04:19:11.876Z,3.01
2022-12-20T04:19:57.717Z,2.87
2022-12-20T04:20:40.184Z,3.06
2022-12-20T04:21:33.347Z,3.10
2022-12-20T04:22:15.027Z,3.01
2022-12-20T04:23:12.854Z,3.18
2022-12-20T04:23:55.030Z,3.15
2022-12-20T04:24:38.308Z,3.00
2022-12-20T04:25:29.213Z,3.18
2022-12-20T04:26:11.498Z,3.19
2022-12-20T04:26:53.207Z,2.98
2022-12-20T04:27:34.792Z,3.22
2022-12-20T04:28:20.761Z,2.82
2022-12-20T04:29:03.816Z,3.23
2022-12-20T04:29:45.951Z,3.02
2022-12-20T04:30:30.628Z,3.22
2022-12-20T04:31:16.158Z,3.24
2022-12-20T04:32:01.757Z,3.25
2022-12-20T04:32:44.027Z,3.31
2022-12-20T04:33:27.494Z,3.21
2022-12-20T04:34:12.382Z,3.34
2022-12-20T04:34:54.144Z,3.18
2022-12-20T04:35:37.063Z,3.14
2022-12-20T04:36:20.198Z,3.29
2022-12-20T04:37:03.328Z,3.16
2022-12-20T04:37:53.926Z,3.38
2022-12-20T04:38:35.633Z,3.37
2022-12-20T04:39:17.363Z,3.38
2022-12-20T04:40:17.426Z,3.41
2022-12-20T04:41:06.141Z,3.37
2022-12-20T04:41:58.838Z,3.38
2022-12-20T04:42:40.427Z,3.36
2022-12-20T04:43:24.602Z,3.30
2022-12-20T04:44:08.817Z,3.22
2022-12-20T04:44:52.073Z,3.25
2022-12-20T04:45:38.800Z,2.99
2022-12-20T04:46:22.371Z,3.21
2022-12-20T04:47:04.618Z,3.13
2022-12-20T04:47:46.821Z,3.02
2022-12-20T04:48:56.114Z,3.14
2022-12-20T04:49:32.853Z,2.73
2022-12-20T04:50:14.627Z,3.11
2022-12-20T04:50:58.292Z,2.97
2022-12-20T04:51:40.792Z,3.16
2022-12-20T04:52:47.307Z,3.18
2022-12-20T04:53:48.284Z,2.63
2022-12-20T04:54:41.470Z,3.16
2022-12-20T04:55:30.488Z,3.03
2022-12-20T04:56:30.596Z,3.07
2022-12-20T04:57:21.000Z,3.05
2022-12-20T04:58:07.696Z,3.31
2022-12-20T04:58:54.278Z,3.34
2022-12-20T04:59:36.118Z,3.38
2022-12-20T05:00:19.821Z,3.14
2022-12-20T05:01:07.456Z,3.39
2022-12-20T05:01:57.131Z,3.47
2022-12-20T05:03:00.131Z,3.49
2022-12-20T05:03:42.390Z,3.50
2022-12-20T05:04:24.675Z,3.54
2022-12-20T05:05:06.745Z,3.43
2022-12-20T05:05:54.720Z,3.52
2022-12-20T05:06:37.422Z,3.51
2022-12-20T05:07:19.342Z,3.53
2022-12-20T05:08:07.572Z,3.46
2022-12-20T05:08:51.177Z,3.52
2022-12-20T05:09:32.858Z,3.52
2022-12-20T05:10:14.860Z,3.46
2022-12-20T05:10:56.985Z,3.40
2022-12-20T05:11:38.617Z,3.50
2022-12-20T05:12:24.130Z,3.50
2022-12-20T05:13:09.451Z,3.50
2022-12-20T05:13:55.710Z,3.12
2022-12-20T05:14:37.393Z,3.41
2022-12-20T05:15:19.500Z,3.57
2022-12-20T05:16:03.088Z,3.58
2022-12-20T05:16:48.121Z,3.44
2022-12-20T05:17:29.845Z,3.63
2022-12-20T05:18:11.470Z,3.65
2022-12-20T05:18:59.987Z,3.66
2022-12-20T05:19:41.653Z,3.48
2022-12-20T05:20:23.449Z,3.58
2022-12-20T05:21:24.469Z,3.69
2022-12-20T05:22:28.822Z,3.51
2022-12-20T05:23:39.516Z,3.55
2022-12-20T05:24:46.893Z,3.53
2022-12-20T05:25:50.575Z,3.41
2022-12-20T05:26:37.608Z,3.59
2022-12-20T05:27:19.942Z,3.61
2022-12-20T05:28:02.126Z,3.54
2022-12-20T05:28:48.059Z,3.53
2022-12-20T05:29:32.084Z,3.59
2022-12-20T05:30:13.975Z,3.67
2022-12-20T05:30:55.928Z,3.79
2022-12-20T05:31:38.064Z,3.75
2022-12-20T05:32:22.765Z,3.81
2022-12-20T05:33:05.563Z,3.68
2022-12-20T05:33:47.630Z,3.75
2022-12-20T05:34:31.380Z,3.74
2022-12-20T05:35:13.103Z,3.56
2022-12-20T05:35:55.646Z,3.77
2022-12-20T05:36:37.544Z,3.75
2022-12-20T05:37:21.831Z,3.81
2022-12-20T05:38:03.916Z,3.69
2022-12-20T05:38:48.852Z,3.75
2022-12-20T05:39:33.774Z,3.73
2022-12-20T05:40:18.591Z,3.71
2022-12-20T05:41:00.426Z,3.79
2022-12-20T05:41:42.123Z,3.82
2022-12-20T05:42:24.997Z,3.62
2022-12-20T05:43:08.661Z,3.83
2022-12-20T05:43:55.900Z,3.84
2022-12-20T05:44:38.029Z,3.69
2022-12-20T05:45:19.720Z,3.40
2022-12-20T05:46:10.639Z,3.71
2022-12-20T05:47:04.551Z,3.49
2022-12-20T05:47:49.181Z,3.84
2022-12-20T05:48:30.987Z,3.90
2022-12-20T05:49:12.597Z,3.91
2022-12-20T05:49:56.829Z,3.90
2022-12-20T05:50:38.516Z,3.72
2022-12-20T05:51:41.228Z,3.84
2022-12-20T05:52:38.141Z,3.82
2022-12-20T05:53:20.225Z,3.74
2022-12-20T05:54:05.995Z,3.78
2022-12-20T05:55:02.877Z,3.60
2022-12-20T05:55:47.661Z,3.76
2022-12-20T05:56:29.776Z,3.70
2022-12-20T05:57:11.783Z,3.74
2022-12-20T05:57:55.571Z,3.70
2022-12-20T05:58:48.495Z,3.65
2022-12-20T05:59:30.075Z,3.57
2022-12-20T06:00:13.043Z,3.79
2022-12-20T06:01:04.638Z,3.72
2022-12-20T06:01:51.112Z,3.69
2022-12-20T06:02:33.042Z,3.82
2022-12-20T06:03:18.962Z,3.82
2022-12-20T06:04:00.860Z,3.77
2022-12-20T06:04:44.356Z,3.76
2022-12-20T06:05:32.096Z,3.69
2022-12-20T06:06:16.873Z,3.62
2022-12-20T06:07:01.328Z,3.45
2022-12-20T06:07:44.074Z,3.54
2022-12-20T06:08:28.223Z,3.45
2022-12-20T06:09:12.059Z,3.59
2022-12-20T06:09:58.686Z,3.43
2022-12-20T06:10:51.338Z,3.65
2022-12-20T06:11:34.108Z,3.66
2022-12-20T06:12:20.377Z,3.58
2022-12-20T06:13:03.673Z,3.63
2022-12-20T06:13:46.033Z,3.30
2022-12-20T06:14:27.809Z,3.75
2022-12-20T06:15:11.347Z,3.53
2022-12-20T06:15:54.227Z,3.78
2022-12-20T06:16:36.349Z,3.81
2022-12-20T06:17:21.712Z,3.80
2022-12-20T06:18:03.754Z,3.67
2022-12-20T06:18:45.414Z,3.75
2022-12-20T06:19:27.884Z,3.51
2022-12-20T06:20:14.276Z,3.68
2022-12-20T06:20:59.112Z,3.73
2022-12-20T06:21:42.145Z,3.78
2022-12-20T06:22:26.268Z,3.65
2022-12-20T06:23:11.056Z,3.81
2022-12-20T06:23:59.686Z,3.80
2022-12-20T06:24:47.619Z,3.70
2022-12-20T06:25:31.078Z,3.73
2022-12-20T06:26:13.099Z,3.81
2022-12-20T06:27:03.461Z,3.71
2022-12-20T06:27:45.250Z,3.44
2022-12-20T06:28:32.976Z,3.63
2022-12-20T06:29:17.305Z,3.54
2022-12-20T06:30:05.760Z,3.60
2022-12-20T06:30:58.771Z,3.58
2022-12-20T06:32:02.958Z,3.48
2022-12-20T06:32:44.791Z,3.60
2022-12-20T06:33:27.128Z,3.53
2022-12-20T06:34:09.907Z,3.61
2022-12-20T06:34:54.980Z,3.54
2022-12-20T06:35:36.684Z,3.50
2022-12-20T06:36:18.510Z,3.44
2022-12-20T06:37:00.266Z,3.40
2022-12-20T06:37:44.962Z,3.43
2022-12-20T06:38:27.833Z,3.39
2022-12-20T06:39:10.184Z,3.34
2022-12-20T06:40:00.161Z,3.32
2022-12-20T06:40:44.530Z,3.09
2022-12-20T06:41:26.260Z,3.34
2022-12-20T06:42:08.929Z,3.33
2022-12-20T06:42:51.487Z,3.08
2022-12-20T06:43:36.348Z,3.23
2022-12-20T06:44:18.787Z,3.33
2022-12-20T06:45:00.455Z,3.24
2022-12-20T06:45:43.117Z,3.34
2022-12-20T06:46:27.333Z,3.31
2022-12-20T06:47:10.540Z,3.38
2022-12-20T06:47:53.957Z,3.41
2022-12-20T06:48:38.473Z,3.46
2022-12-20T06:49:22.411Z,3.45
2022-12-20T06:50:06.460Z,3.45
2022-12-20T06:50:55.476Z,3.47
2022-12-20T06:51:38.438Z,3.39
2022-12-20T06:52:20.247Z,3.34
2022-12-20T06:53:04.730Z,3.44
2022-12-20T06:53:46.349Z,3.44
2022-12-20T06:54:27.983Z,3.38
2022-12-20T06:55:09.623Z,3.30
2022-12-20T06:55:54.499Z,3.38
2022-12-20T06:56:41.260Z,3.55
2022-12-20T06:57:25.289Z,3.57
2022-12-20T06:58:07.542Z,3.54
2022-12-20T06:58:51.328Z,3.46
2022-12-20T06:59:32.993Z,3.47
2022-12-20T07:00:15.319Z,3.32
2022-12-20T07:00:57.055Z,3.44
2022-12-20T07:01:39.216Z,3.25
2022-12-20T07:02:21.101Z,3.31
2022-12-20T07:03:02.981Z,3.30
2022-12-20T07:03:47.271Z,3.40
2022-12-20T07:04:28.970Z,3.39
2022-12-20T07:05:11.020Z,3.37
2022-12-20T07:05:54.239Z,3.43
2022-12-20T07:06:36.624Z,3.33
2022-12-20T07:07:18.271Z,3.13
2022-12-20T07:08:00.108Z,3.45
2022-12-20T07:08:41.761Z,3.34
2022-12-20T07:09:23.461Z,3.40
2022-12-20T07:10:05.791Z,3.43
2022-12-20T07:10:47.696Z,3.47
2022-12-20T07:11:29.291Z,3.47
2022-12-20T07:12:11.842Z,3.59
2022-12-20T07:12:53.456Z,3.59
2022-12-20T07:13:35.285Z,3.59
2022-12-20T07:14:16.928Z,3.41
2022-12-20T07:14:58.597Z,3.58
2022-12-20T07:15:40.206Z,3.45
2022-12-20T07:16:21.825Z,3.71
2022-12-20T07:17:04.837Z,3.73
2022-12-20T07:17:46.521Z,3.75
2022-12-20T07:18:28.365Z,3.74
2022-12-20T07:19:13.965Z,3.71
2022-12-20T07:20:05.091Z,3.47
2022-12-20T07:20:49.287Z,3.68
2022-12-20T07:21:30.909Z,3.62
2022-12-20T07:22:12.592Z,3.71
2022-12-20T07:22:54.170Z,3.73
2022-12-20T07:23:35.805Z,3.64
2022-12-20T07:24:17.545Z,3.63
2022-12-20T07:24:59.187Z,3.75
2022-12-20T07:25:40.845Z,3.67
2022-12-20T07:26:22.500Z,3.75
2022-12-20T07:27:07.940Z,3.71
2022-12-20T07:27:52.659Z,3.57
2022-12-20T07:28:34.319Z,3.64
2022-12-20T07:29:16.385Z,3.67
2022-12-20T07:29:58.057Z,3.79
2022-12-20T07:30:39.643Z,3.50
2022-12-20T07:31:21.519Z,3.82
2022-12-20T07:32:03.686Z,3.78
2022-12-20T07:32:48.257Z,3.89
2022-12-20T07:33:30.858Z,3.89
2022-12-20T07:34:12.848Z,3.96
2022-12-20T07:34:54.430Z,3.89
2022-12-20T07:35:36.039Z,3.88
2022-12-20T07:36:18.561Z,4.01
2022-12-20T07:37:00.198Z,3.95
2022-12-20T07:37:41.906Z,3.97
2022-12-20T07:38:23.549Z,3.95
2022-12-20T07:39:05.306Z,4.11
2022-12-20T07:39:46.937Z,4.13
2022-12-20T07:40:32.320Z,4.09
2022-12-20T07:41:16.822Z,4.08
2022-12-20T07:41:58.608Z,3.72
2022-12-20T07:42:47.978Z,4.15
2022-12-20T07:43:30.433Z,4.10
2022-12-20T07:44:12.083Z,4.13
2022-12-20T07:44:53.797Z,4.10
2022-12-20T07:45:35.561Z,4.09
2022-12-20T07:46:17.604Z,3.92
2022-12-20T07:46:59.249Z,4.06
2022-12-20T07:47:40.908Z,3.92
2022-12-20T07:48:24.082Z,4.06
2022-12-20T07:49:06.044Z,3.65
2022-12-20T07:49:49.368Z,3.85
2022-12-20T07:50:32.846Z,3.88
2022-12-20T07:51:18.873Z,4.02
2022-12-20T07:52:04.508Z,4.03
2022-12-20T07:52:47.530Z,3.85
2022-12-20T07:53:32.953Z,3.24
2022-12-20T07:54:21.916Z,3.95
2022-12-20T07:55:06.943Z,3.81
2022-12-20T07:55:49.165Z,4.13
2022-12-20T07:56:40.791Z,4.14
2022-12-20T07:57:28.147Z,4.18
2022-12-20T07:58:11.472Z,4.17
2022-12-20T07:58:58.205Z,4.23
2022-12-20T07:59:42.385Z,4.15
2022-12-20T08:00:24.122Z,4.30
2022-12-20T08:01:05.956Z,4.32
2022-12-20T08:01:48.562Z,4.23
2022-12-20T08:02:39.708Z,4.38
2022-12-20T08:03:28.646Z,4.39
2022-12-20T08:04:25.049Z,4.01
2022-12-20T08:05:08.333Z,4.42
2022-12-20T08:05:53.678Z,4.24
2022-12-20T08:06:37.509Z,4.39
2022-12-20T08:07:19.200Z,4.40
2022-12-20T08:08:01.927Z,4.47
2022-12-20T08:08:47.601Z,4.49
2022-12-20T08:09:35.591Z,4.24
2022-12-20T08:10:19.669Z,4.48
2022-12-20T08:11:02.517Z,4.53
2022-12-20T08:11:48.195Z,3.98
2022-12-20T08:12:30.907Z,4.38
2022-12-20T08:13:15.933Z,4.51
2022-12-20T08:13:58.527Z,4.43
2022-12-20T08:14:40.638Z,4.57
2022-12-20T08:15:23.133Z,4.58
2022-12-20T08:16:05.247Z,4.58
2022-12-20T08:16:46.953Z,4.47
2022-12-20T08:17:28.840Z,4.31
2022-12-20T08:18:10.475Z,4.43
2022-12-20T08:18:54.309Z,4.39
2022-12-20T08:19:35.896Z,4.44
2022-12-20T08:20:19.587Z,4.42
2022-12-20T08:21:01.329Z,4.47
2022-12-20T08:21:42.981Z,4.41
2022-12-20T08:22:24.658Z,4.39
2022-12-20T08:23:06.294Z,4.47
2022-12-20T08:23:47.995Z,4.50
2022-12-20T08:24:29.606Z,4.52
2022-12-20T08:25:11.948Z,4.38
2022-12-20T08:25:53.546Z,4.50
2022-12-20T08:26:40.152Z,4.57
2022-12-20T08:27:22.150Z,4.63
2022-12-20T08:28:04.068Z,4.65
2022-12-20T08:28:46.677Z,4.68
2022-12-20T08:29:28.454Z,4.67
2022-12-20T08:30:11.254Z,4.74
2022-12-20T08:30:53.148Z,4.76
2022-12-20T08:31:41.076Z,4.79
2022-12-20T08:32:26.607Z,4.73
2022-12-20T08:33:08.283Z,4.74
2022-12-20T08:33:50.056Z,4.54
2022-12-20T08:34:31.794Z,4.63
2022-12-20T08:35:13.622Z,4.49
2022-12-20T08:36:01.408Z,4.63
2022-12-20T08:36:43.794Z,4.47
2022-12-20T08:37:25.603Z,4.60
2022-12-20T08:38:08.304Z,4.51
2022-12-20T08:38:49.957Z,4.63
2022-12-20T08:39:31.565Z,4.52
2022-12-20T08:40:13.491Z,4.67
2022-12-20T08:40:55.225Z,4.73
2022-12-20T08:41:37.488Z,4.63
2022-12-20T08:42:19.190Z,4.73
2022-12-20T08:43:05.161Z,4.62
2022-12-20T08:43:51.483Z,4.92
2022-12-20T08:44:33.064Z,4.97
2022-12-20T08:45:15.287Z,4.93
2022-12-20T08:45:56.954Z,5.03
2022-12-20T08:46:38.773Z,5.00
2022-12-20T08:47:20.827Z,5.02
2022-12-20T08:48:02.438Z,4.93
2022-12-20T08:48:44.100Z,4.54
2022-12-20T08:49:25.683Z,4.92
2022-12-20T08:50:07.747Z,4.95
2022-12-20T08:51:01.059Z,5.08
2022-12-20T08:51:42.874Z,5.11
2022-12-20T08:52:24.611Z,5.08
2022-12-20T08:53:06.251Z,5.05
2022-12-20T08:53:47.867Z,5.11
2022-12-20T08:54:29.510Z,4.64
2022-12-20T08:55:13.012Z,5.01
2022-12-20T08:56:03.906Z,4.71
2022-12-20T08:56:45.491Z,5.06
2022-12-20T08:57:27.099Z,4.99
2022-12-20T08:58:09.320Z,5.01
2022-12-20T08:58:50.924Z,5.08
2022-12-20T08:59:32.561Z,5.09
2022-12-20T09:00:14.989Z,5.11
2022-12-20T09:01:04.528Z,4.98
2022-12-20T09:01:48.329Z,4.63
2022-12-20T09:02:30.264Z,4.72
2022-12-20T09:03:13.881Z,5.19
2022-12-20T09:04:01.222Z,5.26
2022-12-20T09:04:44.406Z,5.22
2022-12-20T09:05:26.022Z,5.28
2022-12-20T09:06:20.365Z,5.43
2022-12-20T09:07:02.129Z,5.52
2022-12-20T09:07:46.808Z,5.44
2022-12-20T09:08:28.462Z,5.46
2022-12-20T09:09:10.113Z,5.47
2022-12-20T09:09:51.728Z,5.42
2022-12-20T09:10:33.645Z,5.53
2022-12-20T09:11:18.489Z,5.51
2022-12-20T09:12:00.080Z,5.38
2022-12-20T09:12:41.721Z,5.41
2022-12-20T09:13:23.301Z,4.93
2022-12-20T09:14:05.050Z,5.59
2022-12-20T09:14:46.746Z,5.60
2022-12-20T09:15:28.482Z,5.65
2022-12-20T09:16:11.960Z,5.62
2022-12-20T09:16:53.759Z,5.69
2022-12-20T09:17:35.359Z,5.70
2022-12-20T09:18:17.066Z,5.64
2022-12-20T09:19:05.518Z,5.72
2022-12-20T09:19:48.708Z,5.71
2022-12-20T09:20:30.587Z,5.60
2022-12-20T09:21:12.366Z,5.64
2022-12-20T09:21:55.460Z,5.31
2022-12-20T09:22:37.082Z,5.67
2022-12-20T09:23:18.690Z,5.73
2022-12-20T09:24:00.391Z,5.66
2022-12-20T09:24:42.122Z,5.52
2022-12-20T09:25:23.720Z,5.40
2022-12-20T09:26:07.682Z,5.50
2022-12-20T09:26:50.756Z,5.61
2022-12-20T09:27:33.956Z,5.26
2022-12-20T09:28:15.649Z,5.63
2022-12-20T09:28:58.698Z,5.68
2022-12-20T09:29:40.451Z,5.73
2022-12-20T09:30:23.587Z,5.58
2022-12-20T09:31:07.816Z,5.81
2022-12-20T09:31:49.960Z,5.73
2022-12-20T09:32:31.589Z,5.85
2022-12-20T09:33:13.314Z,5.78
2022-12-20T09:33:57.781Z,5.86
2022-12-20T09:34:39.491Z,5.87
2022-12-20T09:35:23.184Z,5.90
2022-12-20T09:36:07.517Z,5.91
2022-12-20T09:36:49.103Z,5.87
2022-12-20T09:37:32.166Z,5.93
2022-12-20T09:38:14.091Z,5.88
2022-12-20T09:38:57.630Z,6.11
2022-12-20T09:39:45.135Z,6.11
2022-12-20T09:40:30.660Z,5.92
2022-12-20T09:41:33.365Z,6.18
2022-12-20T09:42:15.650Z,5.81
2022-12-20T09:42:57.332Z,6.11
2022-12-20T09:43:40.273Z,6.15
2022-12-20T09:44:33.506Z,6.23
2022-12-20T09:45:25.649Z,6.17
2022-12-20T09:46:10.474Z,6.15
2022-12-20T09:47:01.257Z,6.13
2022-12-20T09:47:45.379Z,6.17
2022-12-20T09:48:36.969Z,6.14
2022-12-20T09:49:19.239Z,6.15
2022-12-20T09:50:01.892Z,6.28
2022-12-20T09:51:09.595Z,6.31
2022-12-20T09:52:28.063Z,6.29
2022-12-20T09:53:20.053Z,6.21
2022-12-20T09:54:16.466Z,6.22
2022-12-20T09:55:16.647Z,6.20
2022-12-20T09:56:20.388Z,6.21